McLeod, ND (58057)

10:22 PM CST on January 29, 2015 (GMT -0600)
RAWS SHEYENNE ND US | Change Station
CLOSE
Current Station
Personal Weather Station
Location: Sheldon, ND
Elevation: 1069 ft
Nearby Weather Stations

Elev 1069 ft 46.47 °N, 97.32 °W | Updated 33 minutes ago

Partly Cloudy
Partly Cloudy
13 °F
Feels Like 5 °F
N
5
Wind Variable Wind from NE
Gusts 6.0 mph

Today
High -- | Low -- °F
--% Chance of Precip.
Yesterday
High -- | Low -- °F
Precip. -- in
7:56 AM 5:28 PM
Waxing Gibbous, 79% visible
Pressure 30.55 in
Visibility 10.0 miles
Clouds Overcast 1600 ft
Windchill 5 °F
Dew Point 5 °F
Humidity 70%
Rainfall 0.00 in
Snow Depth Not available.
UV 0 out of 12
Pollen .10 out of 12
Air Quality Not available.
Flu Activity Not available.
METAR KGWR 300415Z AUTO 06004KT 10SM OVC016 M07/M11 A3055 RMK A01 P000

More Conditions Fewer Conditions

Pressure 30.55 in
Visibility 10.0 miles
Clouds Overcast 1600 ft
Windchill 5 °F
Dew Point 5 °F
Humidity 70%
Rainfall 0.00 in
Snow Depth Not available.
UV 0 out of 12
Pollen .10 out of 12
Air Quality Not available.
Flu Activity Not available.
METAR KGWR 300415Z AUTO 06004KT 10SM OVC016 M07/M11 A3055 RMK A01 P000

More Conditions Fewer Conditions

10-Day Weather Forecast

Almanac

Astronomy

Jan. 29, 2015 Rise Set
Actual Time
Civil Twilight
Nautical Twilight
Astronomical Twilight
Moon
Length of Visible Light
Length of Day
Tomorrow will be .
, % of the Moon is Illuminated

Today's Extremes

State Highs State Lows

Community

WunderPhotos

Upload Photos

1,791,706 photos uploaded!

WunderBlogs® & News

Nearby

Air Quality

  Air Quality AQ Index Pollutant
Not available.

Snow Depth

Station Depth Elevation

Earthquake Activity

City Distance Mag. Time & Date
Minimum magnitude displayed is 2.5.

Coastal Water Temperatures

Place Temperature

Nearby Weather Stations